Terminal Aerodrome Forecast
Issued by NWS Anchorage, AK

Home | Current Version | Previous Version | Text Only | Print | Product List | Glossary On
Versions: 1 2 3 4 5 6 7 8 9 10 11 12 13 14 15 16 17 18 19
000
FTAK31 PANC 210525
TAFANC
TAF
PANC 210525Z 2106/2212 VRB04KT P6SM BKN080
     FM211600 01006KT 6SM -RA BKN035=

USA.gov is the U.S. government's official web portal to all federal, state and local government web resources and services.